Waltham Abbey, United Kingdom
Current Conditions -  °F | °C
As of 3:50 AM on Saturday 29 Nov 2014 (Local Time) from EGLC Reporting Station
Clear Clear  
Wind Chill: 52°   Ceiling: Unl
Heat Index: 52°   Visibility: 5mi
Dew Point: 46°   Wind: 13mph
Humidity: 82%   Direction: 90°E
Pressure: 29.77"   Gusts: NA
Location:  51.69°N, 0°W
Report Text: EGLC 290350Z AUTO 09011KT 8000 NCD 11/08 Q1008
Loading
Personal Weather Stations






























Interactive Weather Map New forecast layout! Learn more

10-Day Weather Forecast

Advertisements
Track Severe Weather on mobile